Terminal Aerodrome Forecast
Issued by NWS Atlanta, GA

Home | Current Version | Previous Version | Text Only | Print | Product List | Glossary On
Versions: 1 2 3 4 5 6 7 8 9 10 11 12 13
000
FTUS42 KFFC 012120 AAA
TAFCSG
TAF AMD
KCSG 012120Z 0121/0218 17007KT 4SM -RA BR SCT020 BKN035
      TEMPO 0121/0123 3SM RA BR BKN020
     FM012300 17009KT 6SM SHRA OVC012
     FM020100 17011G16KT 6SM -RA OVC009
     FM020300 20011KT 3SM RA OVC008
     FM021000 24011G16KT 6SM -RA SCT008 OVC012
     FM021100 29012G17KT 6SM -RA OVC012
     FM021300 31012G17KT P6SM SCT012 BKN040
     FM021600 31012G25KT P6SM BKN040=

USA.gov is the U.S. government's official web portal to all federal, state and local government web resources and services.